Time;durP1;ratioP1;P1;durP2;ratioP2;P2;SDS_P1;SDS_P2;PMS_P1;PMS_P2;Temp;Humidity;BMP_temperature;BMP_pressure;BME280_temperature;BME280_humidity;BME280_pressure;Samples;Min_cycle;Max_cycle;Signal;HPM_P1;HPM_P2
2023/01/09 00:00:21;;;;;;;0.88;0.80;;;7.20;99.90;;;;;;4894537;29;20054;-77
2023/01/09 00:02:47;;;;;;;0.35;0.30;;;7.10;99.90;;;;;;4870085;29;20128;-77
2023/01/09 00:05:15;;;;;;;2.08;1.15;;;7.10;99.90;;;;;;4848719;29;20034;-77
2023/01/09 00:07:41;;;;;;;0.57;0.57;;;7.00;99.90;;;;;;4840936;29;20061;-77
2023/01/09 00:10:08;;;;;;;1.05;0.80;;;7.00;99.90;;;;;;4871976;29;20030;-77
2023/01/09 00:12:34;;;;;;;0.90;0.90;;;7.00;99.90;;;;;;4873184;29;20033;-77
2023/01/09 00:15:00;;;;;;;0.98;0.50;;;7.00;99.90;;;;;;4869718;29;20037;-77
2023/01/09 00:17:26;;;;;;;2.83;0.85;;;6.90;99.90;;;;;;4887276;29;20065;-77
2023/01/09 00:19:51;;;;;;;0.68;0.47;;;6.90;99.90;;;;;;4875633;29;20041;-77
2023/01/09 00:22:17;;;;;;;1.15;0.60;;;6.90;99.90;;;;;;4876442;29;20392;-77
2023/01/09 00:24:43;;;;;;;6.18;2.03;;;6.80;99.90;;;;;;4867096;29;20058;-77
2023/01/09 00:27:09;;;;;;;4.65;0.95;;;6.80;99.90;;;;;;4876458;29;20033;-77
2023/01/09 00:29:35;;;;;;;1.20;0.57;;;6.70;99.90;;;;;;4837979;29;20045;-77
2023/01/09 00:32:01;;;;;;;0.85;0.40;;;6.70;99.90;;;;;;4858043;29;20030;-77
2023/01/09 00:34:27;;;;;;;2.42;0.77;;;6.60;99.90;;;;;;4863789;29;20061;-77
2023/01/09 00:36:55;;;;;;;0.65;0.63;;;6.50;99.90;;;;;;4844375;29;20037;-77
2023/01/09 00:39:24;;;;;;;0.95;0.73;;;6.50;99.90;;;;;;4850546;29;20037;-77
2023/01/09 00:41:53;;;;;;;3.22;0.40;;;6.50;99.90;;;;;;4859708;29;20045;-77
2023/01/09 00:44:25;;;;;;;1.17;0.38;;;6.50;99.90;;;;;;4863760;29;20041;-77
2023/01/09 00:46:56;;;;;;;0.50;0.50;;;6.40;99.90;;;;;;4894926;29;20040;-77
2023/01/09 00:49:23;;;;;;;0.57;0.57;;;6.40;99.90;;;;;;4877653;29;20037;-77
2023/01/09 00:51:49;;;;;;;1.42;0.75;;;6.30;99.90;;;;;;4877218;29;20025;-77
2023/01/09 00:54:17;;;;;;;0.60;0.60;;;6.30;99.90;;;;;;4874345;29;20025;-77
2023/01/09 00:56:43;;;;;;;1.48;0.60;;;6.20;99.90;;;;;;4893789;29;20037;-77
2023/01/09 00:59:09;;;;;;;5.72;0.75;;;6.20;99.90;;;;;;4876056;29;20050;-77
2023/01/09 01:01:35;;;;;;;1.35;0.60;;;6.10;99.90;;;;;;4861744;29;20040;-77
2023/01/09 01:07:37;;;;;;;0.68;0.68;;;6.10;99.90;;;;;;4893121;29;20060;-77
2023/01/09 01:09:34;;;;;;;0.95;0.60;;;6.00;99.90;;;;;;4861651;29;20049;-77
2023/01/09 01:12:05;;;;;;;1.52;0.88;;;6.00;99.90;;;;;;4858107;29;20109;-77
2023/01/09 01:14:36;;;;;;;1.95;1.02;;;6.00;99.90;;;;;;4874756;29;20042;-77
2023/01/09 01:17:03;;;;;;;1.60;1.45;;;6.00;99.90;;;;;;4874325;29;20035;-77
2023/01/09 01:19:30;;;;;;;4.32;1.42;;;6.00;99.90;;;;;;4874515;29;20030;-77
2023/01/09 01:21:56;;;;;;;4.43;1.88;;;6.00;99.90;;;;;;4842815;29;20104;-77
2023/01/09 01:24:22;;;;;;;1.98;1.85;;;6.00;99.90;;;;;;4874293;29;20089;-77
2023/01/09 01:26:48;;;;;;;2.30;1.42;;;5.90;99.90;;;;;;4874506;29;20034;-77
2023/01/09 01:29:14;;;;;;;4.38;2.10;;;5.80;99.90;;;;;;4858723;29;20034;-77
2023/01/09 01:31:40;;;;;;;2.95;1.67;;;5.80;99.90;;;;;;4854468;29;20041;-77
2023/01/09 01:34:05;;;;;;;3.47;2.83;;;5.70;99.90;;;;;;4857404;29;20034;-77
2023/01/09 01:36:32;;;;;;;4.15;1.85;;;5.70;99.90;;;;;;4857638;29;20029;-77
2023/01/09 01:38:58;;;;;;;1.73;1.00;;;5.70;99.90;;;;;;4858373;29;20047;-77
2023/01/09 01:41:29;;;;;;;1.90;1.20;;;5.60;99.90;;;;;;4847199;29;20054;-77
2023/01/09 01:44:00;;;;;;;2.33;1.17;;;5.60;99.90;;;;;;4856031;29;20046;-77
2023/01/09 01:46:29;;;;;;;1.92;1.58;;;5.60;99.90;;;;;;4867423;29;20045;-77
2023/01/09 01:48:59;;;;;;;1.70;1.25;;;5.60;99.90;;;;;;4863007;29;20042;-77
2023/01/09 01:51:27;;;;;;;3.30;1.17;;;5.50;99.90;;;;;;4874355;29;20039;-77
2023/01/09 01:53:57;;;;;;;1.80;0.88;;;5.60;99.90;;;;;;4877416;29;20108;-77
2023/01/09 01:56:35;;;;;;;2.22;1.38;;;5.50;99.90;;;;;;4892875;29;20037;-77
2023/01/09 01:59:15;;;;;;;2.38;1.67;;;5.60;99.90;;;;;;4874922;29;20064;-77
2023/01/09 02:01:44;;;;;;;2.17;2.00;;;5.60;99.90;;;;;;4854755;29;20061;-77
2023/01/09 02:04:11;;;;;;;1.48;1.05;;;5.50;99.90;;;;;;4858289;29;20026;-77
2023/01/09 02:06:37;;;;;;;1.38;1.27;;;5.50;99.90;;;;;;4851217;29;20058;-77
2023/01/09 02:09:04;;;;;;;2.65;1.75;;;5.50;99.90;;;;;;4855143;29;20067;-77
2023/01/09 02:11:31;;;;;;;1.58;1.48;;;5.50;99.90;;;;;;4873363;29;20037;-77
2023/01/09 02:13:59;;;;;;;3.53;1.95;;;5.40;99.90;;;;;;4878226;29;20037;-77
2023/01/09 02:16:50;;;;;;;2.72;1.73;;;5.40;99.90;;;;;;4871067;29;20037;-77
2023/01/09 02:19:31;;;;;;;2.60;1.67;;;5.40;99.90;;;;;;4859595;29;20045;-77
2023/01/09 02:22:06;;;;;;;2.67;2.20;;;5.40;99.90;;;;;;4858998;29;20034;-77
2023/01/09 02:24:44;;;;;;;4.05;1.23;;;5.30;99.90;;;;;;4859991;29;20042;-77
2023/01/09 02:27:29;;;;;;;2.30;2.15;;;5.30;99.90;;;;;;4845171;29;20037;-77
2023/01/09 02:30:01;;;;;;;1.40;1.30;;;5.30;99.90;;;;;;4857690;29;20060;-77
2023/01/09 02:32:35;;;;;;;5.07;1.83;;;5.30;99.90;;;;;;4858525;29;20040;-77
2023/01/09 02:35:16;;;;;;;2.25;2.00;;;5.30;99.90;;;;;;4863150;29;20026;-77
2023/01/09 02:37:59;;;;;;;2.20;1.58;;;5.30;99.90;;;;;;4876584;29;20125;-77
2023/01/09 02:40:38;;;;;;;4.25;1.50;;;5.30;99.90;;;;;;4865979;29;20041;-77
2023/01/09 02:43:05;;;;;;;2.17;1.95;;;5.30;99.90;;;;;;4877378;29;20045;-77
2023/01/09 02:45:31;;;;;;;1.88;1.77;;;5.30;99.90;;;;;;4864040;29;20036;-77
2023/01/09 02:47:57;;;;;;;6.43;1.63;;;5.30;99.90;;;;;;4844129;29;20061;-77
2023/01/09 02:50:49;;;;;;;1.70;1.20;;;5.20;99.90;;;;;;4865030;29;20068;-77
2023/01/09 02:53:33;;;;;;;4.78;2.45;;;5.20;99.90;;;;;;4845172;29;20476;-77
2023/01/09 02:56:05;;;;;;;4.30;1.88;;;5.20;99.90;;;;;;4872925;29;20038;-77
2023/01/09 02:58:49;;;;;;;1.50;1.40;;;5.20;99.90;;;;;;4877759;29;20066;-77
2023/01/09 03:01:23;;;;;;;1.65;1.55;;;5.10;99.90;;;;;;4868886;29;20033;-77
2023/01/09 03:04:15;;;;;;;1.92;1.30;;;5.10;99.90;;;;;;4858973;29;20082;-77
2023/01/09 03:06:41;;;;;;;1.73;1.63;;;5.10;99.90;;;;;;4856837;29;20097;-77
2023/01/09 03:09:21;;;;;;;2.90;2.03;;;5.10;99.90;;;;;;4877442;29;20044;-77
2023/01/09 03:11:50;;;;;;;;;;;5.00;99.90;;;;;;4851433;29;20064;-77
2023/01/09 03:14:22;;;;;;;3.15;2.17;;;5.10;99.90;;;;;;4877304;29;20036;-77
2023/01/09 03:16:54;;;;;;;3.40;1.95;;;5.10;99.90;;;;;;4847313;29;20097;-77
2023/01/09 03:19:24;;;;;;;3.75;1.92;;;5.10;99.90;;;;;;4862201;29;20028;-77
2023/01/09 03:21:51;;;;;;;2.58;1.65;;;5.10;99.90;;;;;;4861118;29;20053;-77
2023/01/09 03:24:17;;;;;;;3.17;2.60;;;5.10;99.90;;;;;;4825965;29;20048;-77
2023/01/09 03:26:43;;;;;;;8.10;1.95;;;5.10;99.90;;;;;;4871828;29;20109;-77
2023/01/09 03:29:09;;;;;;;1.13;1.13;;;5.20;99.90;;;;;;4875889;29;20032;-77
2023/01/09 03:31:35;;;;;;;10.02;2.35;;;5.10;99.90;;;;;;4876152;29;20029;-77
2023/01/09 03:34:01;;;;;;;3.60;1.75;;;5.10;99.90;;;;;;4843975;29;20033;-77
2023/01/09 03:36:27;;;;;;;3.88;1.70;;;5.10;99.90;;;;;;4875382;29;20040;-77
2023/01/09 03:38:52;;;;;;;2.85;1.55;;;5.20;99.90;;;;;;4875658;29;20042;-77
2023/01/09 03:41:18;;;;;;;8.88;2.03;;;5.20;99.90;;;;;;4860026;29;20082;-77
2023/01/09 03:43:46;;;;;;;3.25;1.90;;;5.20;99.90;;;;;;4857998;29;20049;-77
2023/01/09 03:46:12;;;;;;;2.30;1.90;;;5.20;99.90;;;;;;4860874;29;20037;-77
2023/01/09 03:48:39;;;;;;;1.77;1.55;;;5.30;99.90;;;;;;4862872;29;20038;-77
2023/01/09 03:51:05;;;;;;;2.70;1.80;;;5.40;99.90;;;;;;4849433;29;20108;-77
2023/01/09 03:53:31;;;;;;;2.40;1.10;;;5.30;99.90;;;;;;4857435;29;20124;-77
2023/01/09 03:55:57;;;;;;;1.60;1.50;;;5.40;99.90;;;;;;4864829;29;20081;-77
2023/01/09 03:58:24;;;;;;;3.78;2.65;;;5.50;99.90;;;;;;4876293;29;20041;-77
2023/01/09 04:00:51;;;;;;;4.93;2.40;;;5.60;99.90;;;;;;4876150;29;20026;-77
2023/01/09 04:03:19;;;;;;;5.55;2.45;;;5.70;99.90;;;;;;4876030;29;20041;-77
2023/01/09 04:05:47;;;;;;;11.50;1.38;;;5.70;99.90;;;;;;4860752;29;20071;-77
2023/01/09 04:08:13;;;;;;;4.47;1.25;;;5.80;99.90;;;;;;4876031;29;20093;-77
2023/01/09 04:10:42;;;;;;;1.52;1.42;;;5.80;99.90;;;;;;4875876;29;20077;-77
2023/01/09 04:13:08;;;;;;;4.47;2.47;;;5.90;99.90;;;;;;4859107;29;20098;-77
2023/01/09 04:15:34;;;;;;;4.35;1.60;;;6.00;99.90;;;;;;4878829;29;20025;-77
2023/01/09 04:17:59;;;;;;;2.78;1.52;;;6.00;99.90;;;;;;4890066;29;20037;-77
2023/01/09 04:20:25;;;;;;;4.68;1.92;;;6.00;99.90;;;;;;4858369;29;20105;-77
2023/01/09 04:22:51;;;;;;;5.68;2.05;;;6.10;99.90;;;;;;4875895;29;20033;-77
2023/01/09 04:25:17;;;;;;;3.75;1.20;;;6.20;99.90;;;;;;4859480;29;20037;-77
2023/01/09 04:27:43;;;;;;;3.58;1.38;;;6.20;99.90;;;;;;4859555;29;20050;-77
2023/01/09 04:30:10;;;;;;;7.13;2.65;;;6.30;99.90;;;;;;4826279;29;20026;-77
2023/01/09 04:32:35;;;;;;;2.35;1.60;;;6.30;99.90;;;;;;4876678;29;20033;-77
2023/01/09 04:35:01;;;;;;;5.32;2.05;;;6.40;99.90;;;;;;4874543;29;20131;-77
2023/01/09 04:37:27;;;;;;;5.32;1.80;;;6.40;99.90;;;;;;4892578;29;20029;-77
2023/01/09 04:39:56;;;;;;;5.55;1.88;;;6.40;99.90;;;;;;4878496;29;20064;-77
2023/01/09 04:42:22;;;;;;;8.30;2.28;;;6.40;99.90;;;;;;4857427;29;20038;-77
2023/01/09 04:44:52;;;;;;;2.15;1.98;;;6.40;99.90;;;;;;4857532;29;20037;-77
2023/01/09 04:47:18;;;;;;;;;;;6.50;99.90;;;;;;4873309;29;20105;-77
2023/01/09 04:49:44;;;;;;;2.75;1.90;;;6.50;99.90;;;;;;4875495;29;19912;-77
2023/01/09 04:52:11;;;;;;;4.38;1.65;;;6.50;99.90;;;;;;4844656;29;20037;-77
2023/01/09 04:54:38;;;;;;;1.65;1.48;;;6.60;99.90;;;;;;4857216;29;20395;-77
2023/01/09 04:57:04;;;;;;;6.25;2.55;;;6.60;99.90;;;;;;4869983;29;20096;-77
2023/01/09 04:59:30;;;;;;;3.75;1.13;;;6.60;99.90;;;;;;4876638;29;20037;-77
2023/01/09 05:01:57;;;;;;;5.57;2.30;;;6.60;99.90;;;;;;4874827;29;20041;-77
2023/01/09 05:04:24;;;;;;;3.95;1.92;;;6.70;99.90;;;;;;4843212;29;20037;-77
2023/01/09 05:06:50;;;;;;;6.28;2.25;;;6.70;99.90;;;;;;4874234;29;20188;-77
2023/01/09 05:09:16;;;;;;;6.63;3.25;;;6.70;99.90;;;;;;4858225;29;20033;-77
2023/01/09 05:11:42;;;;;;;1.48;1.40;;;6.70;99.90;;;;;;4874843;29;20452;-77
2023/01/09 05:14:08;;;;;;;2.65;1.45;;;6.80;99.90;;;;;;4858589;29;20022;-77
2023/01/09 05:16:34;;;;;;;8.00;1.88;;;6.80;99.90;;;;;;4883202;29;20036;-77
2023/01/09 05:19:01;;;;;;;2.53;2.33;;;6.80;99.90;;;;;;4894013;29;20057;-77
2023/01/09 05:21:27;;;;;;;3.50;1.45;;;6.80;99.90;;;;;;4848697;29;20060;-77
2023/01/09 05:23:53;;;;;;;6.55;1.33;;;6.80;99.90;;;;;;4841033;29;20515;-77
2023/01/09 05:26:22;;;;;;;10.65;1.73;;;6.90;99.90;;;;;;4837464;29;20571;-77
2023/01/09 05:28:53;;;;;;;5.38;2.22;;;6.90;99.90;;;;;;4893433;29;20037;-77
2023/01/09 05:31:21;;;;;;;2.70;1.10;;;6.90;99.90;;;;;;4893075;29;20470;-77
2023/01/09 05:33:47;;;;;;;1.52;1.38;;;6.90;99.90;;;;;;4876820;29;20031;-77
2023/01/09 05:36:13;;;;;;;3.03;1.23;;;6.90;99.90;;;;;;4890709;29;20053;-77
2023/01/09 05:38:39;;;;;;;3.92;0.90;;;6.90;99.90;;;;;;4874191;29;20099;-77
2023/01/09 05:41:05;;;;;;;3.45;1.73;;;6.90;99.90;;;;;;4861660;29;20045;-77
2023/01/09 05:43:31;;;;;;;3.88;2.10;;;7.00;99.90;;;;;;4873760;29;20148;-77
2023/01/09 05:45:56;;;;;;;3.13;1.83;;;7.00;99.90;;;;;;4870357;29;20049;-77
2023/01/09 05:48:22;;;;;;;3.58;1.10;;;7.00;99.90;;;;;;4857036;29;20065;-77
2023/01/09 05:50:48;;;;;;;2.22;1.63;;;7.00;99.90;;;;;;4835117;29;20055;-77
2023/01/09 05:53:14;;;;;;;9.80;2.80;;;7.10;99.90;;;;;;4852897;29;20052;-77
2023/01/09 05:55:40;;;;;;;2.05;1.00;;;7.10;99.90;;;;;;4844084;29;20038;-77
2023/01/09 05:58:06;;;;;;;10.93;2.40;;;7.10;99.90;;;;;;4844748;29;20022;-77
2023/01/09 06:00:32;;;;;;;2.22;1.63;;;7.20;99.90;;;;;;4845627;29;20029;-77
2023/01/09 06:02:58;;;;;;;10.05;2.97;;;7.20;99.90;;;;;;4854612;29;20042;-77
2023/01/09 06:05:27;;;;;;;7.47;2.05;;;7.20;99.90;;;;;;4859839;29;20113;-77
2023/01/09 06:07:52;;;;;;;10.13;3.38;;;7.20;99.90;;;;;;4861485;29;20041;-77
2023/01/09 06:10:18;;;;;;;5.63;2.00;;;7.30;99.90;;;;;;4860907;29;20450;-77
2023/01/09 06:12:49;;;;;;;1.83;1.58;;;7.30;99.90;;;;;;4854184;29;20023;-77
2023/01/09 06:15:16;;;;;;;5.72;1.40;;;7.30;99.90;;;;;;4844254;29;20067;-77
2023/01/09 06:17:43;;;;;;;2.33;2.13;;;7.40;99.90;;;;;;4884991;29;20036;-77
2023/01/09 06:20:09;;;;;;;14.75;3.25;;;7.30;99.90;;;;;;4849243;29;20086;-77
2023/01/09 06:22:35;;;;;;;5.75;2.33;;;7.30;99.90;;;;;;4845839;29;20029;-77
2023/01/09 06:25:01;;;;;;;9.48;2.90;;;7.30;99.90;;;;;;4852375;29;20030;-76
2023/01/09 06:27:27;;;;;;;3.83;1.15;;;7.30;99.90;;;;;;4860632;29;20495;-75
2023/01/09 06:29:53;;;;;;;4.75;1.70;;;7.40;99.90;;;;;;4844348;29;20045;-75
2023/01/09 06:32:19;;;;;;;6.50;2.22;;;7.40;99.90;;;;;;4869759;29;20028;-75
2023/01/09 06:34:45;;;;;;;3.08;1.90;;;7.40;99.90;;;;;;4859350;29;20034;-75
2023/01/09 06:37:11;;;;;;;7.57;3.20;;;7.40;99.90;;;;;;4860621;29;20024;-75
2023/01/09 06:39:37;;;;;;;4.95;1.35;;;7.50;99.90;;;;;;4860028;29;20183;-75
2023/01/09 06:42:03;;;;;;;7.78;2.08;;;7.50;99.90;;;;;;4874661;29;20034;-75
2023/01/09 06:44:29;;;;;;;5.20;2.83;;;7.50;99.90;;;;;;4864116;29;20112;-75
2023/01/09 06:46:55;;;;;;;8.90;3.53;;;7.50;99.90;;;;;;4851489;29;20034;-75
2023/01/09 06:49:22;;;;;;;5.75;2.70;;;7.50;99.90;;;;;;4867789;29;20042;-75
2023/01/09 06:51:51;;;;;;;4.45;1.83;;;7.50;99.90;;;;;;4873433;29;20025;-75
2023/01/09 06:54:18;;;;;;;2.15;1.92;;;7.50;99.90;;;;;;4876772;29;20150;-75
2023/01/09 06:56:44;;;;;;;1.75;1.65;;;7.50;99.90;;;;;;4862623;29;20033;-75
2023/01/09 06:59:10;;;;;;;2.80;2.33;;;7.50;99.90;;;;;;4843394;29;20091;-76
2023/01/09 07:01:38;;;;;;;4.35;2.08;;;7.50;99.90;;;;;;4849243;29;20136;-76
2023/01/09 07:04:05;;;;;;;3.00;1.20;;;7.50;99.90;;;;;;4849495;29;20033;-75
2023/01/09 07:06:32;;;;;;;2.72;2.13;;;7.50;99.90;;;;;;4843638;29;20088;-75
2023/01/09 07:08:59;;;;;;;6.95;2.13;;;7.50;99.90;;;;;;4839075;29;20098;-75
2023/01/09 07:11:24;;;;;;;8.43;2.35;;;7.50;99.90;;;;;;4863651;29;20078;-76
2023/01/09 07:13:50;;;;;;;7.95;2.60;;;7.40;99.90;;;;;;4860219;29;20034;-76
2023/01/09 07:16:16;;;;;;;3.95;2.60;;;7.40;99.90;;;;;;4858676;29;20041;-76
2023/01/09 07:18:43;;;;;;;4.43;2.10;;;7.50;99.90;;;;;;4858188;29;20049;-76
2023/01/09 07:21:09;;;;;;;2.22;1.05;;;7.50;99.90;;;;;;4857745;29;20054;-76
2023/01/09 07:23:35;;;;;;;5.32;2.03;;;7.40;99.90;;;;;;4845240;29;20033;-75
2023/01/09 07:26:01;;;;;;;7.15;2.03;;;7.40;99.90;;;;;;4852661;29;20063;-75
2023/01/09 07:28:26;;;;;;;2.67;1.83;;;7.40;99.90;;;;;;4875069;29;20037;-75
2023/01/09 07:30:52;;;;;;;4.70;2.22;;;7.40;99.90;;;;;;4875319;29;20284;-75
2023/01/09 07:33:18;;;;;;;3.75;1.85;;;7.40;99.90;;;;;;4875465;29;20037;-75
2023/01/09 07:35:44;;;;;;;6.13;3.40;;;7.40;99.90;;;;;;4854171;29;20071;-75
2023/01/09 07:38:10;;;;;;;4.90;3.47;;;7.40;99.90;;;;;;4842853;29;20041;-75
2023/01/09 07:40:36;;;;;;;7.85;3.58;;;7.40;99.90;;;;;;4843746;29;20125;-75
2023/01/09 07:43:01;;;;;;;7.22;6.20;;;7.40;99.90;;;;;;4850370;29;20053;-76
2023/01/09 07:45:27;;;;;;;24.33;14.75;;;7.40;99.90;;;;;;4846364;29;20029;-75
2023/01/09 07:47:54;;;;;;;26.85;16.27;;;7.40;99.90;;;;;;4858773;29;20077;-76
2023/01/09 07:50:19;;;;;;;10.75;7.35;;;7.40;99.90;;;;;;4841065;29;20025;-76
2023/01/09 07:52:46;;;;;;;8.88;6.10;;;7.40;99.90;;;;;;4856498;29;20476;-76
2023/01/09 07:55:12;;;;;;;4.38;3.00;;;7.40;99.90;;;;;;4859623;29;20030;-76
2023/01/09 07:57:38;;;;;;;6.97;3.80;;;7.40;99.90;;;;;;4834548;29;20069;-76
2023/01/09 08:00:06;;;;;;;8.93;3.47;;;7.40;99.90;;;;;;4873658;29;20037;-75
2023/01/09 08:02:37;;;;;;;3.75;3.17;;;7.40;99.90;;;;;;4869940;29;20046;-75
2023/01/09 08:05:03;;;;;;;8.10;1.80;;;7.40;99.90;;;;;;4864116;29;20030;-76
2023/01/09 08:07:29;;;;;;;2.38;2.17;;;7.40;99.90;;;;;;4874196;29;20081;-75
2023/01/09 08:09:54;;;;;;;3.65;2.25;;;7.40;99.90;;;;;;4843091;29;20890;-76
2023/01/09 08:12:20;;;;;;;6.82;2.35;;;7.40;99.90;;;;;;4841593;29;20109;-77
2023/01/09 08:14:47;;;;;;;9.05;5.25;;;7.40;99.90;;;;;;4869517;29;20404;-75
2023/01/09 08:17:13;;;;;;;3.90;3.25;;;7.40;99.90;;;;;;4857446;29;20058;-75
2023/01/09 08:19:39;;;;;;;1.42;1.00;;;7.50;99.90;;;;;;4858125;29;20086;-75
2023/01/09 08:22:05;;;;;;;3.90;2.13;;;7.50;99.90;;;;;;4856963;29;20041;-75
2023/01/09 08:24:31;;;;;;;3.40;2.22;;;7.60;99.90;;;;;;4859280;29;20022;-75
2023/01/09 08:26:57;;;;;;;7.90;1.10;;;7.60;99.90;;;;;;4848982;29;20038;-75
2023/01/09 08:29:24;;;;;;;2.15;1.80;;;7.60;99.90;;;;;;4862750;29;20038;-74
2023/01/09 08:31:50;;;;;;;3.65;2.55;;;7.70;99.90;;;;;;4824783;29;20033;-74
2023/01/09 08:34:16;;;;;;;2.78;1.35;;;7.70;99.90;;;;;;4839724;29;20438;-75
2023/01/09 08:36:41;;;;;;;5.63;2.03;;;7.70;99.90;;;;;;4856138;29;20033;-75
2023/01/09 08:39:08;;;;;;;9.60;1.75;;;7.60;99.90;;;;;;4873086;29;20054;-74
2023/01/09 08:47:05;;;;;;;8.30;1.55;;;7.60;99.90;;;;;;4873846;29;20045;-74
2023/01/09 08:49:37;;;;;;;4.85;1.50;;;7.60;99.90;;;;;;4856821;29;20049;-75
2023/01/09 08:52:04;;;;;;;4.05;1.92;;;7.60;99.90;;;;;;4856580;29;20059;-75
2023/01/09 08:54:30;;;;;;;3.47;1.20;;;7.50;99.90;;;;;;4860556;29;20053;-75
2023/01/09 08:56:56;;;;;;;3.10;2.03;;;7.50;99.90;;;;;;4868649;29;20030;-75
2023/01/09 08:59:22;;;;;;;2.75;2.00;;;7.50;99.90;;;;;;4868871;29;20034;-75
2023/01/09 09:01:48;;;;;;;3.08;2.35;;;7.50;99.90;;;;;;4863389;29;20038;-75
2023/01/09 09:04:14;;;;;;;2.38;1.52;;;7.60;99.90;;;;;;4841506;29;20032;-75
2023/01/09 09:06:40;;;;;;;1.90;1.15;;;7.70;99.90;;;;;;4838718;29;20058;-75
2023/01/09 09:09:06;;;;;;;8.80;2.05;;;7.70;99.90;;;;;;4855427;29;20041;-75
2023/01/09 09:11:32;;;;;;;7.63;1.85;;;7.70;99.90;;;;;;4855332;29;20029;-75
2023/01/09 09:13:59;;;;;;;2.40;1.35;;;7.80;99.90;;;;;;4856528;29;20106;-75
2023/01/09 09:16:25;;;;;;;5.90;3.63;;;7.90;99.90;;;;;;4837469;29;20037;-75
2023/01/09 09:18:52;;;;;;;6.30;3.67;;;7.90;99.90;;;;;;4842441;29;20067;-75
2023/01/09 09:21:19;;;;;;;8.25;2.78;;;8.00;99.90;;;;;;4871790;29;20037;-75
2023/01/09 09:23:45;;;;;;;4.22;2.63;;;8.00;99.90;;;;;;4869386;29;20029;-75
2023/01/09 09:26:11;;;;;;;7.93;2.35;;;8.00;99.90;;;;;;4858089;29;20064;-75
2023/01/09 09:28:37;;;;;;;10.40;1.92;;;8.00;99.90;;;;;;4870832;29;20510;-74
2023/01/09 09:31:07;;;;;;;3.20;1.65;;;8.00;99.90;;;;;;4850827;29;20061;-75
2023/01/09 09:33:32;;;;;;;1.55;1.52;;;8.00;99.90;;;;;;4855407;29;20173;-75
2023/01/09 09:35:58;;;;;;;2.10;1.77;;;8.10;99.90;;;;;;4824055;29;20433;-75
2023/01/09 09:38:24;;;;;;;2.22;1.98;;;8.10;99.90;;;;;;4832769;29;20572;-75
2023/01/09 09:44:41;;;;;;;2.75;1.77;;;8.20;99.90;;;;;;4853832;29;20109;-75
2023/01/09 09:44:52;;;;;;;3.25;2.10;;;8.30;99.90;;;;;;4857170;29;20049;-75
2023/01/09 09:47:40;;;;;;;2.72;2.22;;;8.40;99.90;;;;;;4844786;29;20057;-75
2023/01/09 09:50:25;;;;;;;1.90;1.63;;;8.30;99.90;;;;;;4865516;29;20038;-75
2023/01/09 09:53:02;;;;;;;2.35;1.58;;;8.20;99.90;;;;;;4839215;29;20037;-75
2023/01/09 09:55:38;;;;;;;5.68;2.83;;;8.20;99.90;;;;;;4838449;29;20158;-75
2023/01/09 09:58:14;;;;;;;5.78;2.58;;;8.10;99.90;;;;;;4869685;29;20996;-75
2023/01/09 10:00:41;;;;;;;6.55;4.05;;;8.10;99.90;;;;;;4855524;29;20431;-75
2023/01/09 10:03:23;;;;;;;8.52;5.25;;;8.00;99.90;;;;;;4856891;29;20061;-75
2023/01/09 10:05:51;;;;;;;14.35;11.07;;;8.00;99.90;;;;;;4857031;29;20113;-75
2023/01/09 10:08:40;;;;;;;5.47;3.42;;;8.00;99.90;;;;;;4845432;29;20045;-75
2023/01/09 10:11:16;;;;;;;3.25;1.67;;;8.00;99.90;;;;;;4856030;29;20034;-75
2023/01/09 10:16:39;;;;;;;4.60;2.60;;;7.90;99.90;;;;;;4854677;29;20057;-75
2023/01/09 10:19:32;;;;;;;2.28;1.92;;;7.90;99.90;;;;;;4840884;29;20034;-75
2023/01/09 10:22:29;;;;;;;3.17;2.80;;;7.90;99.90;;;;;;4856603;29;20070;-75
2023/01/09 10:25:16;;;;;;;16.00;10.98;;;7.90;99.90;;;;;;4855455;29;20037;-75
2023/01/09 10:28:28;;;;;;;4.53;4.13;;;7.90;99.90;;;;;;4866999;29;20029;-75
2023/01/09 10:31:08;;;;;;;1.05;1.02;;;7.90;99.90;;;;;;4821007;29;20042;-75
2023/01/09 10:33:43;;;;;;;;;;;8.00;99.90;;;;;;4841941;29;20026;-75
2023/01/09 10:36:30;;;;;;;3.33;1.23;;;8.00;99.90;;;;;;4858470;29;19912;-75
2023/01/09 10:39:02;;;;;;;3.13;1.75;;;8.10;99.90;;;;;;4857255;29;20037;-75
2023/01/09 10:41:33;;;;;;;5.50;1.40;;;8.10;99.90;;;;;;4857839;29;20561;-75
2023/01/09 10:44:21;;;;;;;0.73;0.68;;;8.10;99.90;;;;;;4857589;29;20057;-75
2023/01/09 10:46:55;;;;;;;1.02;1.02;;;8.10;99.90;;;;;;4865775;29;20037;-75
2023/01/09 10:49:23;;;;;;;4.90;1.98;;;8.10;99.90;;;;;;4855027;29;20589;-75
2023/01/09 10:51:54;;;;;;;7.53;1.20;;;8.10;99.90;;;;;;4840711;29;20036;-75
2023/01/09 10:54:22;;;;;;;2.22;1.60;;;8.10;99.90;;;;;;4842172;29;20104;-75
2023/01/09 10:56:58;;;;;;;3.90;2.35;;;8.10;99.90;;;;;;4864626;29;20021;-75
2023/01/09 10:59:25;;;;;;;4.63;2.90;;;8.10;99.90;;;;;;4863578;29;20062;-75
2023/01/09 11:01:52;;;;;;;3.95;2.83;;;8.10;99.90;;;;;;4859314;29;20037;-75
2023/01/09 11:04:31;;;;;;;5.20;2.80;;;8.20;99.90;;;;;;4843147;29;20061;-75
2023/01/09 11:07:11;;;;;;;7.57;4.72;;;8.20;99.90;;;;;;4875689;29;20623;-75
2023/01/09 11:10:02;;;;;;;5.72;1.75;;;8.30;99.90;;;;;;4847237;29;20037;-75
2023/01/09 11:12:33;;;;;;;3.38;2.08;;;8.30;99.90;;;;;;4859681;29;20029;-75
2023/01/09 11:15:26;;;;;;;4.00;2.50;;;8.40;99.90;;;;;;4851785;29;20053;-75
2023/01/09 11:17:51;;;;;;;2.90;2.25;;;8.50;99.90;;;;;;4862069;29;20066;-76
2023/01/09 11:20:22;;;;;;;5.93;2.22;;;8.50;99.90;;;;;;4848601;29;20046;-75
2023/01/09 11:22:51;;;;;;;2.70;2.28;;;8.60;99.90;;;;;;4846169;29;20033;-75
2023/01/09 11:25:19;;;;;;;1.90;1.10;;;8.60;99.90;;;;;;4842491;29;20426;-75
2023/01/09 11:28:08;;;;;;;6.53;2.67;;;8.60;99.90;;;;;;4841553;29;20037;-75
2023/01/09 11:30:36;;;;;;;4.47;2.42;;;8.50;99.90;;;;;;4857025;29;20026;-75
2023/01/09 11:33:14;;;;;;;2.78;1.83;;;8.70;99.90;;;;;;4858809;29;20058;-75
2023/01/09 11:35:55;;;;;;;3.00;2.35;;;8.60;99.90;;;;;;4857777;29;20026;-75
2023/01/09 11:38:21;;;;;;;1.67;1.40;;;8.60;99.90;;;;;;4857750;29;20034;-75
2023/01/09 11:41:16;;;;;;;3.92;2.53;;;8.60;99.90;;;;;;4828568;29;20041;-75
2023/01/09 11:43:45;;;;;;;2.03;1.83;;;8.80;99.90;;;;;;4867170;29;20045;-75
2023/01/09 11:46:30;;;;;;;4.30;2.88;;;8.80;99.90;;;;;;4858303;29;20041;-75
2023/01/09 11:48:58;;;;;;;2.10;1.77;;;8.70;99.90;;;;;;4841627;29;20038;-75
2023/01/09 11:51:29;;;;;;;10.05;2.47;;;8.60;99.90;;;;;;4839681;29;20025;-75
2023/01/09 11:53:58;;;;;;;5.28;3.58;;;8.50;99.90;;;;;;4841855;29;20029;-75
2023/01/09 11:56:25;;;;;;;3.20;1.95;;;8.40;99.90;;;;;;4844947;29;20108;-75
2023/01/09 11:58:51;;;;;;;5.13;4.63;;;8.30;99.90;;;;;;4846553;29;20029;-75
2023/01/09 12:01:20;;;;;;;5.07;2.38;;;8.70;99.90;;;;;;4832177;29;20098;-75
2023/01/09 12:04:10;;;;;;;6.88;3.75;;;8.30;99.90;;;;;;4855948;29;20030;-76
2023/01/09 12:07:02;;;;;;;6.05;5.30;;;8.30;99.90;;;;;;4839371;29;20478;-75
2023/01/09 12:09:56;;;;;;;10.80;5.35;;;8.30;99.90;;;;;;4844741;29;20033;-75
2023/01/09 12:12:34;;;;;;;2.70;2.33;;;8.60;99.90;;;;;;4840967;29;20041;-75
2023/01/09 12:15:22;;;;;;;20.27;13.93;;;8.60;99.90;;;;;;4875073;29;20066;-76
2023/01/09 12:18:25;;;;;;;5.45;4.88;;;8.70;99.90;;;;;;4856678;29;20090;-76
2023/01/09 12:21:23;;;;;;;2.83;1.80;;;8.70;99.90;;;;;;4875316;29;20037;-75
2023/01/09 12:24:19;;;;;;;1.88;1.77;;;8.70;99.90;;;;;;4846975;29;20057;-76
2023/01/09 12:26:53;;;;;;;3.15;2.05;;;8.80;99.90;;;;;;4840934;29;20504;-76
2023/01/09 12:29:43;;;;;;;10.50;8.07;;;8.90;99.90;;;;;;4841714;29;20037;-76
2023/01/09 12:32:17;;;;;;;19.83;14.27;;;8.90;99.90;;;;;;4867962;29;20029;-76
2023/01/09 12:34:46;;;;;;;6.63;5.25;;;9.00;99.90;;;;;;4857946;29;20043;-76
2023/01/09 12:37:27;;;;;;;5.68;2.42;;;9.20;99.90;;;;;;4874357;29;20040;-76
2023/01/09 12:40:14;;;;;;;7.90;2.78;;;9.10;99.90;;;;;;4873782;29;20379;-76
2023/01/09 12:43:10;;;;;;;3.42;2.63;;;9.00;99.90;;;;;;4839285;29;20038;-76
2023/01/09 12:45:44;;;;;;;15.95;4.03;;;9.00;99.90;;;;;;4856031;29;20093;-75
2023/01/09 12:48:18;;;;;;;6.53;3.20;;;9.10;99.90;;;;;;4864141;29;20034;-75
2023/01/09 12:50:52;;;;;;;13.95;11.55;;;9.60;99.90;;;;;;4874225;29;20054;-75
2023/01/09 12:53:33;;;;;;;6.22;3.90;;;9.70;99.90;;;;;;4873764;29;20461;-75
2023/01/09 12:56:15;;;;;;;9.60;7.10;;;9.60;99.90;;;;;;4873067;29;20030;-75
2023/01/09 12:58:58;;;;;;;6.85;2.10;;;9.30;99.90;;;;;;4874171;29;20033;-75
2023/01/09 13:01:31;;;;;;;4.18;3.83;;;9.10;99.90;;;;;;4865262;29;20057;-76
2023/01/09 13:04:16;;;;;;;5.65;3.95;;;9.10;99.90;;;;;;4864570;29;20102;-76
2023/01/09 13:06:48;;;;;;;11.85;4.45;;;9.00;99.90;;;;;;4839658;29;20092;-77
2023/01/09 13:09:26;;;;;;;4.78;4.22;;;9.10;99.90;;;;;;4873633;29;20030;-77
2023/01/09 13:12:03;;;;;;;5.07;3.70;;;8.90;99.90;;;;;;4875931;29;20052;-75
2023/01/09 13:14:44;;;;;;;6.47;5.88;;;8.80;99.90;;;;;;4875452;29;20084;-75
2023/01/09 13:17:25;;;;;;;8.80;3.72;;;8.70;99.90;;;;;;4883414;29;20022;-75
2023/01/09 13:19:52;;;;;;;6.68;4.30;;;8.50;99.90;;;;;;4891323;29;20106;-75
2023/01/09 13:22:20;;;;;;;4.18;2.72;;;8.40;99.90;;;;;;4869202;29;20447;-75
2023/01/09 13:25:04;;;;;;;2.85;2.67;;;8.40;99.90;;;;;;4871639;29;20502;-75
2023/01/09 13:27:35;;;;;;;3.28;2.30;;;8.40;99.90;;;;;;4891725;29;20062;-75